createdAt,value
2017-10-30T00:00:17.377Z,79.74
2017-10-30T00:00:57.943Z,80.02
2017-10-30T00:01:38.500Z,79.17
2017-10-30T00:02:19.082Z,79.27
2017-10-30T00:02:59.618Z,80.31
2017-10-30T00:03:40.137Z,80.22
2017-10-30T00:04:20.740Z,79.83
2017-10-30T00:05:01.262Z,80.69
2017-10-30T00:05:42.067Z,80.5
2017-10-30T00:06:22.688Z,80.41
2017-10-30T00:07:03.240Z,80.41
2017-10-30T00:07:43.798Z,79.93
2017-10-30T00:08:24.300Z,80.12
2017-10-30T00:09:04.877Z,80.22
2017-10-30T00:09:45.428Z,80.31
2017-10-30T00:10:25.977Z,80.22
2017-10-30T00:11:06.531Z,80.6
2017-10-30T00:11:47.075Z,80.31
2017-10-30T00:12:27.649Z,80.31
2017-10-30T00:13:08.164Z,80.12
2017-10-30T00:13:48.719Z,80.02
2017-10-30T00:14:29.291Z,80.02
2017-10-30T00:15:09.949Z,80.6
2017-10-30T00:15:50.453Z,80.22
2017-10-30T00:16:31.077Z,80.69
2017-10-30T00:17:11.616Z,79.64
2017-10-30T00:17:52.124Z,79.83
2017-10-30T00:18:32.719Z,79.93
2017-10-30T00:19:13.491Z,80.22
2017-10-30T00:19:54.071Z,80.41
2017-10-30T00:20:34.646Z,80.41
2017-10-30T00:21:15.259Z,79.74
2017-10-30T00:21:55.838Z,79.83
2017-10-30T00:22:36.459Z,80.31
2017-10-30T00:23:17.089Z,79.55
2017-10-30T00:23:57.643Z,80.22
2017-10-30T00:24:38.368Z,80.31
2017-10-30T00:25:18.921Z,80.12
2017-10-30T00:25:59.423Z,80.31
2017-10-30T00:26:40.004Z,80.22
2017-10-30T00:27:20.547Z,80.31
2017-10-30T00:28:01.255Z,80.22
2017-10-30T00:28:41.769Z,79.74
2017-10-30T00:29:22.259Z,79.46
2017-10-30T00:30:02.866Z,80.31
2017-10-30T00:30:43.659Z,80.6
2017-10-30T00:31:24.502Z,80.69
2017-10-30T00:32:05.043Z,80.6
2017-10-30T00:32:45.609Z,80.69
2017-10-30T00:33:26.208Z,80.79
2017-10-30T00:34:06.719Z,79.64
2017-10-30T00:34:47.228Z,80.31
2017-10-30T00:35:27.837Z,80.6
2017-10-30T00:36:08.368Z,80.31
2017-10-30T00:36:48.913Z,80.41
2017-10-30T00:37:29.464Z,80.31
2017-10-30T00:38:09.978Z,80.41
2017-10-30T00:38:50.497Z,80.41
2017-10-30T00:39:31.066Z,80.12
2017-10-30T00:40:11.577Z,80.22
2017-10-30T00:40:52.121Z,80.69
2017-10-30T00:41:32.663Z,79.74
2017-10-30T00:42:13.225Z,79.74
2017-10-30T00:42:53.786Z,80.41
2017-10-30T00:43:34.307Z,80.31
2017-10-30T00:44:14.875Z,80.31
2017-10-30T00:44:55.416Z,80.22
2017-10-30T00:45:35.981Z,80.69
2017-10-30T00:46:16.536Z,80.6
2017-10-30T00:46:57.086Z,80.6
2017-10-30T00:47:37.620Z,80.79
2017-10-30T00:48:18.184Z,80.79
2017-10-30T00:48:58.747Z,80.41
2017-10-30T00:49:39.271Z,80.79
2017-10-30T00:50:19.865Z,80.22
2017-10-30T00:51:00.426Z,80.31
2017-10-30T00:51:40.946Z,80.31
2017-10-30T00:52:21.491Z,80.5
2017-10-30T00:53:02.051Z,80.41
2017-10-30T00:53:42.595Z,80.12
2017-10-30T00:54:23.127Z,80.31
2017-10-30T00:55:03.662Z,80.31
2017-10-30T00:55:44.305Z,80.12
2017-10-30T00:56:24.825Z,80.12
2017-10-30T00:57:05.399Z,80.41
2017-10-30T00:57:45.962Z,80.5
2017-10-30T00:58:27.232Z,80.31
2017-10-30T00:59:07.888Z,80.02
2017-10-30T00:59:48.423Z,80.69
2017-10-30T01:00:28.929Z,80.5
2017-10-30T01:01:09.463Z,80.79
2017-10-30T01:01:50.037Z,80.41
2017-10-30T01:02:30.697Z,80.69
2017-10-30T01:03:11.232Z,79.74
2017-10-30T01:03:51.747Z,79.83
2017-10-30T01:04:32.298Z,79.07
2017-10-30T01:05:12.874Z,79.7
2017-10-30T01:05:53.453Z,80.46
2017-10-30T01:06:33.981Z,80.65
2017-10-30T01:07:14.545Z,81.13
2017-10-30T01:07:55.095Z,81.03
2017-10-30T01:08:35.685Z,81.32
2017-10-30T01:09:16.240Z,81.65
2017-10-30T01:09:56.798Z,81.46
2017-10-30T01:10:37.345Z,81.26
2017-10-30T01:11:18.033Z,81.55
2017-10-30T01:11:58.480Z,81.36
2017-10-30T01:12:39.009Z,82.12
2017-10-30T01:13:19.758Z,81.84
2017-10-30T01:14:00.140Z,81.93
2017-10-30T01:14:40.712Z,81.93
2017-10-30T01:15:21.259Z,82.03
2017-10-30T01:16:01.824Z,81.84
2017-10-30T01:16:42.325Z,81.26
2017-10-30T01:17:22.900Z,81.55
2017-10-30T01:18:03.453Z,81.65
2017-10-30T01:18:44.006Z,81.17
2017-10-30T01:19:24.555Z,81.84
2017-10-30T01:20:05.171Z,81.74
2017-10-30T01:20:45.713Z,81.26
2017-10-30T01:21:26.285Z,82.03
2017-10-30T01:22:06.840Z,81.84
2017-10-30T01:22:47.368Z,82.12
2017-10-30T01:23:27.921Z,81.46
2017-10-30T01:24:08.521Z,81.03
2017-10-30T01:24:49.027Z,81.7
2017-10-30T01:25:29.716Z,81.98
2017-10-30T01:26:10.268Z,81.7
2017-10-30T01:26:50.815Z,82.93
2017-10-30T01:27:31.436Z,82.93
2017-10-30T01:28:12.630Z,82.56
2017-10-30T01:28:53.178Z,83.03
2017-10-30T01:29:33.736Z,82.75
2017-10-30T01:30:14.272Z,83.51
2017-10-30T01:30:54.805Z,83.32
2017-10-30T01:31:35.341Z,83.41
2017-10-30T01:32:15.938Z,82.84
2017-10-30T01:32:56.484Z,83.13
2017-10-30T01:33:37.024Z,83.13
2017-10-30T01:34:17.572Z,83.13
2017-10-30T01:34:58.104Z,83.13
2017-10-30T01:35:38.659Z,81.6
2017-10-30T01:36:19.256Z,82.84
2017-10-30T01:36:59.866Z,82.08
2017-10-30T01:37:40.548Z,83.03
2017-10-30T01:38:21.050Z,83.13
2017-10-30T01:39:01.808Z,83.51
2017-10-30T01:39:42.359Z,83.32
2017-10-30T01:40:22.919Z,83.61
2017-10-30T01:41:03.424Z,82.65
2017-10-30T01:41:44.125Z,82.65
2017-10-30T01:42:24.671Z,82.75
2017-10-30T01:43:05.283Z,82.9
2017-10-30T01:43:45.807Z,82.8
2017-10-30T01:44:26.370Z,83.37
2017-10-30T01:45:06.924Z,83.51
2017-10-30T01:45:47.426Z,83.51
2017-10-30T01:46:27.981Z,83.61
2017-10-30T01:47:08.524Z,83.13
2017-10-30T01:47:49.073Z,82.65
2017-10-30T01:48:29.635Z,82.08
2017-10-30T01:49:10.186Z,82.9
2017-10-30T01:49:50.741Z,82.9
2017-10-30T01:50:31.297Z,83.18
2017-10-30T01:51:11.844Z,82.9
2017-10-30T01:51:52.407Z,83.28
2017-10-30T01:52:32.967Z,83.56
2017-10-30T01:53:13.513Z,83.94
2017-10-30T01:53:54.052Z,84.8
2017-10-30T01:54:34.618Z,84.8
2017-10-30T01:55:15.157Z,84.23
2017-10-30T01:55:55.720Z,84.8
2017-10-30T01:56:36.244Z,84.33
2017-10-30T01:57:16.794Z,83.47
2017-10-30T01:57:57.340Z,83.75
2017-10-30T01:58:37.890Z,83.28
2017-10-30T01:59:18.444Z,82.9
2017-10-30T01:59:59.021Z,83.47
2017-10-30T02:00:39.557Z,83.56
2017-10-30T02:01:20.073Z,83.65
2017-10-30T02:02:00.662Z,83.32
2017-10-30T02:02:41.139Z,83.47
2017-10-30T02:03:21.687Z,83.51
2017-10-30T02:04:02.287Z,83.28
2017-10-30T02:04:42.838Z,83.18
2017-10-30T02:05:23.388Z,83.18
2017-10-30T02:06:03.949Z,83.18
2017-10-30T02:06:45.561Z,83.41
2017-10-30T02:07:26.105Z,83.51
2017-10-30T02:08:06.650Z,83.51
2017-10-30T02:08:47.190Z,82.93
2017-10-30T02:09:27.758Z,82.84
2017-10-30T02:10:08.314Z,82.75
2017-10-30T02:10:48.831Z,83.22
2017-10-30T02:11:29.364Z,82.65
2017-10-30T02:12:09.914Z,82.51
2017-10-30T02:12:50.457Z,83.37
2017-10-30T02:13:30.998Z,83.41
2017-10-30T02:14:11.568Z,83.22
2017-10-30T02:14:52.106Z,83.61
2017-10-30T02:15:32.660Z,83.41
2017-10-30T02:16:13.192Z,82.08
2017-10-30T02:16:53.750Z,81.76
2017-10-30T02:17:34.316Z,82.14
2017-10-30T02:18:14.847Z,82.14
2017-10-30T02:18:55.394Z,82.42
2017-10-30T02:19:35.940Z,82.99
2017-10-30T02:20:16.475Z,83.56
2017-10-30T02:20:57.029Z,83.41
2017-10-30T02:21:37.575Z,83.41
2017-10-30T02:22:18.091Z,83.32
2017-10-30T02:22:58.637Z,82.93
2017-10-30T02:23:39.187Z,83.13
2017-10-30T02:24:19.746Z,82.75
2017-10-30T02:25:00.294Z,82.65
2017-10-30T02:25:40.836Z,83.13
2017-10-30T02:26:21.392Z,83.13
2017-10-30T02:27:01.970Z,82.93
2017-10-30T02:27:42.542Z,82.46
2017-10-30T02:28:23.041Z,82.27
2017-10-30T02:29:03.579Z,81.98
2017-10-30T02:29:44.143Z,81.89
2017-10-30T02:30:24.683Z,81.56
2017-10-30T02:31:05.240Z,82.42
2017-10-30T02:31:45.789Z,82.99
2017-10-30T02:32:26.338Z,83.47
2017-10-30T02:33:06.897Z,83.56
2017-10-30T02:33:47.442Z,83.56
2017-10-30T02:34:27.999Z,83.41
2017-10-30T02:35:08.549Z,82.84
2017-10-30T02:35:49.103Z,82.93
2017-10-30T02:36:29.641Z,83.13
2017-10-30T02:37:10.164Z,82.46
2017-10-30T02:37:50.708Z,82.08
2017-10-30T02:38:31.269Z,81.7
2017-10-30T02:39:11.781Z,82.08
2017-10-30T02:39:52.335Z,82.84
2017-10-30T02:40:32.890Z,82.65
2017-10-30T02:41:13.490Z,82.46
2017-10-30T02:41:53.990Z,82.65
2017-10-30T02:42:34.547Z,82.65
2017-10-30T02:43:15.075Z,82.75
2017-10-30T02:43:55.634Z,82.56
2017-10-30T02:44:37.121Z,82.65
2017-10-30T02:45:18.331Z,82.84
2017-10-30T02:45:58.895Z,82.93
2017-10-30T02:46:39.433Z,82.56
2017-10-30T02:47:19.967Z,82.56
2017-10-30T02:48:00.502Z,82.65
2017-10-30T02:48:41.045Z,82.75
2017-10-30T02:49:21.584Z,81.79
2017-10-30T02:50:02.140Z,81.79
2017-10-30T02:50:42.689Z,81.79
2017-10-30T02:51:23.238Z,82.27
2017-10-30T02:52:03.807Z,81.98
2017-10-30T02:52:44.333Z,81.89
2017-10-30T02:53:24.851Z,82.08
2017-10-30T02:54:05.402Z,81.98
2017-10-30T02:54:45.958Z,81.51
2017-10-30T02:55:26.495Z,81.76
2017-10-30T02:56:07.049Z,81.76
2017-10-30T02:56:47.604Z,82.42
2017-10-30T02:57:28.133Z,82.65
2017-10-30T02:58:08.694Z,82.84
2017-10-30T02:58:49.229Z,82.84
2017-10-30T02:59:29.744Z,82.46
2017-10-30T03:00:10.311Z,82.65
2017-10-30T03:00:50.842Z,82.65
2017-10-30T03:01:31.394Z,82.75
2017-10-30T03:02:11.951Z,82.56
2017-10-30T03:02:52.499Z,83.03
2017-10-30T03:03:32.998Z,82.75
2017-10-30T03:04:13.546Z,82.75
2017-10-30T03:04:54.113Z,81.79
2017-10-30T03:05:34.651Z,82.08
2017-10-30T03:06:15.170Z,81.98
2017-10-30T03:06:55.725Z,82.18
2017-10-30T03:07:36.270Z,82.37
2017-10-30T03:08:16.843Z,82.46
2017-10-30T03:08:57.405Z,81.51
2017-10-30T03:09:37.939Z,82.18
2017-10-30T03:10:18.479Z,82.08
2017-10-30T03:10:59.032Z,82.65
2017-10-30T03:11:39.583Z,81.79
2017-10-30T03:12:20.175Z,81.89
2017-10-30T03:13:00.699Z,82.08
2017-10-30T03:13:41.228Z,81.79
2017-10-30T03:14:21.796Z,81.89
2017-10-30T03:15:02.329Z,82.37
2017-10-30T03:15:42.889Z,82.37
2017-10-30T03:16:23.453Z,81.89
2017-10-30T03:17:04.019Z,81.51
2017-10-30T03:17:44.551Z,81.79
2017-10-30T03:18:25.118Z,81.79
2017-10-30T03:19:05.672Z,82.08
2017-10-30T03:19:46.210Z,81.79
2017-10-30T03:20:26.755Z,81.85
2017-10-30T03:21:07.299Z,82.04
2017-10-30T03:21:47.851Z,82.9
2017-10-30T03:22:28.396Z,83.03
2017-10-30T03:23:08.928Z,82.65
2017-10-30T03:23:49.468Z,82.46
2017-10-30T03:24:30.047Z,82.65
2017-10-30T03:25:10.636Z,81.98
2017-10-30T03:25:51.127Z,82.8
2017-10-30T03:26:31.667Z,81.98
2017-10-30T03:27:12.202Z,82.14
2017-10-30T03:27:52.790Z,82.51
2017-10-30T03:28:33.313Z,82.75
2017-10-30T03:29:13.879Z,82.75
2017-10-30T03:29:54.456Z,82.65
2017-10-30T03:30:35.021Z,82.56
2017-10-30T03:31:15.554Z,82.84
2017-10-30T03:31:56.116Z,82.56
2017-10-30T03:32:36.672Z,82.65
2017-10-30T03:33:17.208Z,83.03
2017-10-30T03:33:57.728Z,82.56
2017-10-30T03:34:38.249Z,82.84
2017-10-30T03:35:18.819Z,82.08
2017-10-30T03:35:59.381Z,81.89
2017-10-30T03:36:39.895Z,82.56
2017-10-30T03:37:20.455Z,81.79
2017-10-30T03:38:01.057Z,82.27
2017-10-30T03:38:41.593Z,82.93
2017-10-30T03:39:22.160Z,82.93
2017-10-30T03:40:02.732Z,82.75
2017-10-30T03:40:43.290Z,82.8
2017-10-30T03:41:23.844Z,82.51
2017-10-30T03:42:04.402Z,82.56
2017-10-30T03:42:44.952Z,82.46
2017-10-30T03:43:25.499Z,82.84
2017-10-30T03:44:06.040Z,82.99
2017-10-30T03:44:46.685Z,82.46
2017-10-30T03:45:27.314Z,82.46
2017-10-30T03:46:07.873Z,82.65
2017-10-30T03:46:48.417Z,82.65
2017-10-30T03:47:28.963Z,82.75
2017-10-30T03:48:09.469Z,82.46
2017-10-30T03:48:50.028Z,82.93
2017-10-30T03:49:30.583Z,82.84
2017-10-30T03:50:11.138Z,82.84
2017-10-30T03:50:51.691Z,82.56
2017-10-30T03:51:32.255Z,82.37
2017-10-30T03:52:12.805Z,81.89
2017-10-30T03:52:53.337Z,82.37
2017-10-30T03:53:33.889Z,81.98
2017-10-30T03:54:14.435Z,82.37
2017-10-30T03:54:54.990Z,82.37
2017-10-30T03:55:35.543Z,82.08
2017-10-30T03:56:16.104Z,82.75
2017-10-30T03:56:56.684Z,82.08
2017-10-30T03:57:37.214Z,82.08
2017-10-30T03:58:17.704Z,82.84
2017-10-30T03:58:58.222Z,82.27
2017-10-30T03:59:38.767Z,81.89
2017-10-30T04:00:19.320Z,81.89
2017-10-30T04:00:59.875Z,81.98
2017-10-30T04:01:40.436Z,81.89
2017-10-30T04:02:20.976Z,82.08
2017-10-30T04:03:01.516Z,82.04
2017-10-30T04:03:42.104Z,82.99
2017-10-30T04:04:22.639Z,81.95
2017-10-30T04:05:03.207Z,82.8
2017-10-30T04:05:43.738Z,82.37
2017-10-30T04:06:24.271Z,82.8
2017-10-30T04:07:04.837Z,82.51
2017-10-30T04:07:45.376Z,83.22
2017-10-30T04:08:25.937Z,82.56
2017-10-30T04:09:06.483Z,82.61
2017-10-30T04:09:47.040Z,82.8
2017-10-30T04:10:27.597Z,82.7
2017-10-30T04:11:08.128Z,82.75
2017-10-30T04:11:48.681Z,82.84
2017-10-30T04:12:29.218Z,82.51
2017-10-30T04:13:09.775Z,82.8
2017-10-30T04:13:50.326Z,83.09
2017-10-30T04:14:30.898Z,83.37
2017-10-30T04:15:11.398Z,83.13
2017-10-30T04:15:51.975Z,82.8
2017-10-30T04:16:32.507Z,82.42
2017-10-30T04:17:13.071Z,83.09
2017-10-30T04:17:53.641Z,82.9
2017-10-30T04:18:34.194Z,83.37
2017-10-30T04:19:14.759Z,82.99
2017-10-30T04:19:55.308Z,83.28
2017-10-30T04:20:35.887Z,82.99
2017-10-30T04:21:16.403Z,83.09
2017-10-30T04:21:56.936Z,82.8
2017-10-30T04:22:37.508Z,82.9
2017-10-30T04:23:18.066Z,83.18
2017-10-30T04:23:58.620Z,83.18
2017-10-30T04:24:39.177Z,83.28
2017-10-30T04:25:19.721Z,83.37
2017-10-30T04:26:00.249Z,83.28
2017-10-30T04:26:40.783Z,83.09
2017-10-30T04:27:21.344Z,83.56
2017-10-30T04:28:01.874Z,83.28
2017-10-30T04:28:42.432Z,83.47
2017-10-30T04:29:22.955Z,83.56
2017-10-30T04:30:03.518Z,83.47
2017-10-30T04:30:44.056Z,83.28
2017-10-30T04:31:24.596Z,83.28
2017-10-30T04:32:05.143Z,83.37
2017-10-30T04:32:45.679Z,84.04
2017-10-30T04:33:26.234Z,83.98
2017-10-30T04:34:06.806Z,83.47
2017-10-30T04:34:47.364Z,83.28
2017-10-30T04:35:27.919Z,83.37
2017-10-30T04:36:08.492Z,84.23
2017-10-30T04:36:49.001Z,83.09
2017-10-30T04:37:29.567Z,83.28
2017-10-30T04:38:10.113Z,84.23
2017-10-30T04:38:50.694Z,83.28
2017-10-30T04:39:31.237Z,83.28
2017-10-30T04:40:11.771Z,83.37
2017-10-30T04:40:52.305Z,84.13
2017-10-30T04:41:32.870Z,83.85
2017-10-30T04:42:13.422Z,84.13
2017-10-30T04:42:53.990Z,84.13
2017-10-30T04:43:34.550Z,84.04
2017-10-30T04:44:15.093Z,84.23
2017-10-30T04:44:55.652Z,84.04
2017-10-30T04:45:36.212Z,84.52
2017-10-30T04:46:16.749Z,85.24
2017-10-30T04:46:57.289Z,84.61
2017-10-30T04:47:37.829Z,84.99
2017-10-30T04:48:18.391Z,84.8
2017-10-30T04:48:58.935Z,85.18
2017-10-30T04:49:39.485Z,84.8
2017-10-30T04:50:20.009Z,85.18
2017-10-30T04:51:00.583Z,84.7
2017-10-30T04:51:41.168Z,84.8
2017-10-30T04:52:21.695Z,85.08
2017-10-30T04:53:02.224Z,84.52
2017-10-30T04:53:42.763Z,84.7
2017-10-30T04:54:23.319Z,85.08
2017-10-30T04:55:03.892Z,84.7
2017-10-30T04:55:44.466Z,84.76
2017-10-30T04:56:25.403Z,85.08
2017-10-30T04:57:05.922Z,84.99
2017-10-30T04:57:46.482Z,84.8
2017-10-30T04:58:27.048Z,85.18
2017-10-30T04:59:07.601Z,84.99
2017-10-30T04:59:48.919Z,84.33
2017-10-30T05:00:28.695Z,85.08
2017-10-30T05:01:09.281Z,85.08
2017-10-30T05:01:49.794Z,84.61
2017-10-30T05:02:30.322Z,85.37
2017-10-30T05:03:10.859Z,84.61
2017-10-30T05:03:51.412Z,84.8
2017-10-30T05:04:31.960Z,84.89
2017-10-30T05:05:12.487Z,84.7
2017-10-30T05:05:53.041Z,84.99
2017-10-30T05:06:33.578Z,85.18
2017-10-30T05:07:14.134Z,85.08
2017-10-30T05:07:54.712Z,85.28
2017-10-30T05:08:35.250Z,84.8
2017-10-30T05:09:15.797Z,85.28
2017-10-30T05:09:56.353Z,84.04
2017-10-30T05:10:36.897Z,84.61
2017-10-30T05:11:17.471Z,84.7
2017-10-30T05:11:58.019Z,85.61
2017-10-30T05:12:38.572Z,85.14
2017-10-30T05:13:19.133Z,85.8
2017-10-30T05:13:59.698Z,86.18
2017-10-30T05:14:40.254Z,86.18
2017-10-30T05:15:20.803Z,86.47
2017-10-30T05:16:01.360Z,86.38
2017-10-30T05:16:41.913Z,86.18
2017-10-30T05:17:22.448Z,86.28
2017-10-30T05:18:02.995Z,86.13
2017-10-30T05:18:43.549Z,86.42
2017-10-30T05:19:24.097Z,85.8
2017-10-30T05:20:04.642Z,85.85
2017-10-30T05:20:45.215Z,85.66
2017-10-30T05:21:25.772Z,86.04
2017-10-30T05:22:06.302Z,86.04
2017-10-30T05:22:46.858Z,85.85
2017-10-30T05:23:27.422Z,85.56
2017-10-30T05:24:07.977Z,85.66
2017-10-30T05:24:48.513Z,84.42
2017-10-30T05:25:29.067Z,85.37
2017-10-30T05:26:09.629Z,85.18
2017-10-30T05:26:50.177Z,86.13
2017-10-30T05:27:30.739Z,85.28
2017-10-30T05:28:11.272Z,85.66
2017-10-30T05:28:51.830Z,84.61
2017-10-30T05:29:32.409Z,84.89
2017-10-30T05:30:12.940Z,84.8
2017-10-30T05:30:53.486Z,85.08
2017-10-30T05:31:34.046Z,84.8
2017-10-30T05:32:14.596Z,84.99
2017-10-30T05:32:55.142Z,85.08
2017-10-30T05:33:35.696Z,85.08
2017-10-30T05:34:16.230Z,84.89
2017-10-30T05:34:56.783Z,85.18
2017-10-30T05:35:37.321Z,85.66
2017-10-30T05:36:17.875Z,85.28
2017-10-30T05:36:58.440Z,85.66
2017-10-30T05:37:38.984Z,85.37
2017-10-30T05:38:19.546Z,85.66
2017-10-30T05:39:00.081Z,85.56
2017-10-30T05:39:40.608Z,84.89
2017-10-30T05:40:21.185Z,84.47
2017-10-30T05:41:01.729Z,85.61
2017-10-30T05:41:42.285Z,85.8
2017-10-30T05:42:22.851Z,86.09
2017-10-30T05:43:03.417Z,86.04
2017-10-30T05:43:43.959Z,85.61
2017-10-30T05:44:24.483Z,85.8
2017-10-30T05:45:05.053Z,85.61
2017-10-30T05:45:45.613Z,85.42
2017-10-30T05:46:26.155Z,85.61
2017-10-30T05:47:06.708Z,85.71
2017-10-30T05:47:47.272Z,85.9
2017-10-30T05:48:27.803Z,86.38
2017-10-30T05:49:08.355Z,86.28
2017-10-30T05:49:48.906Z,86.57
2017-10-30T05:50:29.448Z,86.38
2017-10-30T05:51:09.992Z,86.28
2017-10-30T05:51:50.566Z,85.99
2017-10-30T05:52:31.118Z,86.28
2017-10-30T05:53:11.644Z,86.18
2017-10-30T05:53:52.217Z,86.32
2017-10-30T05:54:32.764Z,86.18
2017-10-30T05:55:13.290Z,86.04
2017-10-30T05:55:53.840Z,85.14
2017-10-30T05:56:34.368Z,85.61
2017-10-30T05:57:14.942Z,86.28
2017-10-30T05:57:55.496Z,86.09
2017-10-30T05:58:36.045Z,86.09
2017-10-30T05:59:16.608Z,85.71
2017-10-30T05:59:57.141Z,85.33
2017-10-30T06:00:37.687Z,86.18
2017-10-30T06:01:18.202Z,85.66
2017-10-30T06:01:58.749Z,85.66
2017-10-30T06:02:39.296Z,85.24
2017-10-30T06:03:19.801Z,84.76
2017-10-30T06:04:00.390Z,85.14
2017-10-30T06:04:40.914Z,85.61
2017-10-30T06:05:21.475Z,85.8
2017-10-30T06:06:02.015Z,85.8
2017-10-30T06:06:42.588Z,85.99
2017-10-30T06:07:23.127Z,85.99
2017-10-30T06:08:03.686Z,85.61
2017-10-30T06:08:44.244Z,85.52
2017-10-30T06:09:24.807Z,86.18
2017-10-30T06:10:05.347Z,85.52
2017-10-30T06:10:46.559Z,85.71
2017-10-30T06:11:26.564Z,86.47
2017-10-30T06:12:07.072Z,86.38
2017-10-30T06:12:47.628Z,85.99
2017-10-30T06:13:28.170Z,85.99
2017-10-30T06:14:08.722Z,86.57
2017-10-30T06:14:49.264Z,87.13
2017-10-30T06:15:29.821Z,87.04
2017-10-30T06:16:10.386Z,86.76
2017-10-30T06:16:50.874Z,87.52
2017-10-30T06:17:31.427Z,87.9
2017-10-30T06:18:11.965Z,87.52
2017-10-30T06:18:52.543Z,87.52
2017-10-30T06:19:33.027Z,87.23
2017-10-30T06:20:13.570Z,86.28
2017-10-30T06:20:54.117Z,86.94
2017-10-30T06:21:34.810Z,87.71
2017-10-30T06:22:15.202Z,87.8
2017-10-30T06:22:55.713Z,88.56
2017-10-30T06:23:36.256Z,88.99
2017-10-30T06:24:16.764Z,88.42
2017-10-30T06:24:57.282Z,88.23
2017-10-30T06:25:37.859Z,88.32
2017-10-30T06:26:18.391Z,88.04
2017-10-30T06:26:58.947Z,88.51
2017-10-30T06:27:39.439Z,88.32
2017-10-30T06:28:19.956Z,88.7
2017-10-30T06:29:00.522Z,87.65
2017-10-30T06:29:41.025Z,88.23
2017-10-30T06:30:21.562Z,88.99
2017-10-30T06:31:02.093Z,88.79
2017-10-30T06:31:42.646Z,87.94
2017-10-30T06:32:23.196Z,87.56
2017-10-30T06:33:03.751Z,87.42
2017-10-30T06:33:44.314Z,87.71
2017-10-30T06:34:24.829Z,88.18
2017-10-30T06:35:05.371Z,88.23
2017-10-30T06:35:45.960Z,88.79
2017-10-30T06:36:26.527Z,88.32
2017-10-30T06:37:07.482Z,88.32
2017-10-30T06:37:47.994Z,87.42
2017-10-30T06:38:28.575Z,87.9
2017-10-30T06:39:09.057Z,87.46
2017-10-30T06:39:49.626Z,87.42
2017-10-30T06:40:30.146Z,87.61
2017-10-30T06:41:10.695Z,87.71
2017-10-30T06:41:51.243Z,87.8
2017-10-30T06:42:31.782Z,87.9
2017-10-30T06:43:12.317Z,88.37
2017-10-30T06:43:52.903Z,88.56
2017-10-30T06:44:33.446Z,88.46
2017-10-30T06:45:13.919Z,88.66
2017-10-30T06:45:54.464Z,88.37
2017-10-30T06:46:35.041Z,88.56
2017-10-30T06:47:15.590Z,89.51
2017-10-30T06:47:56.163Z,88.85
2017-10-30T06:48:36.713Z,89.61
2017-10-30T06:49:17.346Z,89.14
2017-10-30T06:49:57.919Z,88.75
2017-10-30T06:50:38.463Z,88.37
2017-10-30T06:51:18.998Z,87.9
2017-10-30T06:51:59.578Z,88.18
2017-10-30T06:52:40.142Z,88.56
2017-10-30T06:53:20.717Z,87.99
2017-10-30T06:54:01.229Z,87.61
2017-10-30T06:54:41.786Z,87.61
2017-10-30T06:55:22.304Z,87.71
2017-10-30T06:56:02.871Z,88.09
2017-10-30T06:56:43.422Z,87.71
2017-10-30T06:57:24.024Z,87.71
2017-10-30T06:58:04.575Z,88.85
2017-10-30T06:58:45.087Z,90.18
2017-10-30T07:00:06.652Z,97.46
2017-10-30T07:00:47.168Z,99.99
2017-10-30T07:01:27.852Z,99.99
2017-10-30T07:02:08.297Z,99.99
2017-10-30T07:02:49.324Z,99.99
2017-10-30T07:03:29.870Z,99.99
2017-10-30T07:04:10.385Z,99.99
2017-10-30T07:04:51.368Z,99.99
2017-10-30T07:05:31.905Z,99.99
2017-10-30T07:06:12.484Z,95.84
2017-10-30T07:06:53.849Z,99.99
2017-10-30T07:07:34.370Z,99.46
2017-10-30T07:08:14.987Z,98.98
2017-10-30T07:08:55.499Z,97.17
2017-10-30T07:09:36.021Z,95.46
2017-10-30T07:10:16.594Z,94.7
2017-10-30T07:10:57.133Z,93.94
2017-10-30T07:11:37.651Z,93.94
2017-10-30T07:12:18.157Z,92.7
2017-10-30T07:12:58.717Z,99.99
2017-10-30T07:13:39.287Z,99.99
2017-10-30T07:14:19.913Z,99.99
2017-10-30T07:15:00.455Z,99.99
2017-10-30T07:15:40.996Z,99.99
2017-10-30T07:16:21.561Z,99.99
2017-10-30T07:17:02.042Z,99.99
2017-10-30T07:17:42.593Z,99.99
2017-10-30T07:18:23.113Z,99.99
2017-10-30T07:19:03.692Z,99.99
2017-10-30T07:19:44.216Z,99.99
2017-10-30T07:20:24.742Z,99.99
2017-10-30T07:21:05.302Z,99.99
2017-10-30T07:21:45.866Z,99.99
2017-10-30T07:22:26.412Z,99.99
2017-10-30T07:23:06.949Z,95.12
2017-10-30T07:23:47.461Z,93.13
2017-10-30T07:24:28.055Z,92.46
2017-10-30T07:25:08.583Z,94.27
2017-10-30T07:25:49.076Z,93.32
2017-10-30T07:26:29.601Z,94.46
2017-10-30T07:28:45.023Z,95.56
2017-10-30T07:29:25.545Z,97.56
2017-10-30T07:30:06.081Z,94.32
2017-10-30T07:30:46.663Z,96.36
2017-10-30T07:31:27.187Z,97.7
2017-10-30T07:32:07.783Z,97.61
2017-10-30T07:32:48.277Z,88.41
2017-10-30T07:33:28.824Z,86.03
2017-10-30T07:34:09.361Z,85.93
2017-10-30T07:34:49.880Z,86.88
2017-10-30T07:35:30.409Z,86.98
2017-10-30T07:36:10.935Z,87.31
2017-10-30T07:36:51.493Z,87.88
2017-10-30T07:37:32.041Z,87.31
2017-10-30T07:38:12.588Z,87.02
2017-10-30T07:38:53.143Z,86.93
2017-10-30T07:39:33.709Z,85.21
2017-10-30T07:40:14.228Z,83.59
2017-10-30T07:40:54.849Z,84.92
2017-10-30T07:41:35.334Z,85.78
2017-10-30T07:42:15.888Z,83.97
2017-10-30T07:42:56.464Z,83.17
2017-10-30T07:43:36.958Z,83.26
2017-10-30T07:44:17.541Z,84.03
2017-10-30T07:44:58.072Z,85.88
2017-10-30T07:45:38.684Z,84.64
2017-10-30T07:46:19.205Z,84.55
2017-10-30T07:46:59.757Z,85.41
2017-10-30T07:47:40.923Z,85.21
2017-10-30T07:48:21.454Z,86.36
2017-10-30T07:49:01.973Z,86.65
2017-10-30T07:49:42.509Z,86.74
2017-10-30T07:50:23.121Z,86.98
2017-10-30T07:51:03.665Z,84.55
2017-10-30T07:51:44.892Z,83.78
2017-10-30T07:52:28.552Z,85.6
2017-10-30T07:53:10.065Z,86.36
2017-10-30T07:53:51.455Z,99.99
2017-10-30T07:54:32.010Z,99.99
2017-10-30T07:55:12.709Z,99.99
2017-10-30T07:55:53.507Z,99.99
2017-10-30T07:56:33.960Z,99.99
2017-10-30T07:57:14.495Z,99.99
2017-10-30T07:57:55.020Z,99.99
2017-10-30T07:58:35.613Z,99.99
2017-10-30T07:59:16.190Z,99.99
2017-10-30T07:59:56.764Z,99.99
2017-10-30T08:00:37.427Z,99.99
2017-10-30T08:01:17.947Z,99.99
2017-10-30T08:01:58.571Z,97.94
2017-10-30T08:02:39.106Z,90.08
2017-10-30T08:03:19.652Z,90.93
2017-10-30T08:04:00.255Z,89.03
2017-10-30T08:04:40.846Z,91.5
2017-10-30T08:05:21.402Z,93.22
2017-10-30T08:06:02.009Z,99.99
2017-10-30T08:06:42.580Z,99.99
2017-10-30T08:07:23.114Z,99.99
2017-10-30T08:08:03.813Z,99.99
2017-10-30T08:08:44.612Z,99.99
2017-10-30T08:09:25.179Z,99.99
2017-10-30T08:10:05.816Z,99.99
2017-10-30T08:10:46.350Z,99.99
2017-10-30T08:11:26.941Z,99.99
2017-10-30T08:12:07.472Z,99.99
2017-10-30T08:12:48.035Z,99.99
2017-10-30T08:13:28.552Z,99.37
2017-10-30T08:14:09.118Z,98.7
2017-10-30T08:14:49.635Z,93.74
2017-10-30T08:15:30.183Z,92.79
2017-10-30T08:16:10.754Z,92.12
2017-10-30T08:16:51.316Z,90.69
2017-10-30T08:17:31.878Z,90.5
2017-10-30T08:18:12.516Z,89.83
2017-10-30T08:18:53.092Z,88.4
2017-10-30T08:19:33.623Z,87.64
2017-10-30T08:20:14.172Z,89.07
2017-10-30T08:20:54.746Z,97.32
2017-10-30T08:21:35.251Z,97.13
2017-10-30T08:22:15.812Z,91.93
2017-10-30T08:22:56.357Z,95.08
2017-10-30T08:23:36.921Z,96.56
2017-10-30T08:24:17.486Z,94.36
2017-10-30T08:24:58.022Z,96.37
2017-10-30T08:25:38.572Z,93.41
2017-10-30T08:26:19.126Z,89.02
2017-10-30T08:26:59.694Z,88.54
2017-10-30T08:27:40.246Z,87.68
2017-10-30T08:28:20.816Z,86.63
2017-10-30T08:29:03.039Z,85.21
2017-10-30T08:29:43.596Z,85.54
2017-10-30T08:30:24.152Z,85.45
2017-10-30T08:31:04.722Z,84.88
2017-10-30T08:31:45.265Z,85.64
2017-10-30T08:32:25.823Z,83.64
2017-10-30T08:33:06.387Z,84.69
2017-10-30T08:33:46.943Z,84.4
2017-10-30T08:34:27.479Z,86.02
2017-10-30T08:35:08.073Z,86.02
2017-10-30T08:35:48.602Z,84.69
2017-10-30T08:36:29.140Z,84.4
2017-10-30T08:37:09.691Z,87.07
2017-10-30T08:37:50.261Z,87.35
2017-10-30T08:38:30.835Z,85.35
2017-10-30T08:39:11.354Z,86.21
2017-10-30T08:39:51.927Z,86.4
2017-10-30T08:40:32.468Z,91.27
2017-10-30T08:41:13.049Z,91.93
2017-10-30T08:41:53.608Z,95.56
2017-10-30T08:42:34.179Z,99.42
2017-10-30T08:43:14.745Z,98.56
2017-10-30T08:43:55.304Z,99.99
2017-10-30T08:44:35.839Z,99.99
2017-10-30T08:45:16.391Z,99.99
2017-10-30T08:45:56.971Z,99.99
2017-10-30T08:46:37.763Z,99.99